Pelsor, Arkansas
Current Conditions -  °F | °C
As of 11:53 AM on Tuesday 21 Oct 2014 (Local Time) from KRUE Reporting Station
Clear Clear  
Wind Chill: 21°   Ceiling: Unl
Heat Index: 21°   Visibility: 10mi
Dew Point: 16°   Wind: 3mph
Humidity: 73%   Direction: NA
Pressure: 30.13"   Gusts: NA
Location:  35.7°N, 93.08°W
Report Text: KRUE 211653Z AUTO VRB03KT 10SM CLR 21/16 A3013 RMK AO2 SLP198 T02060156
Loading
Personal Weather Stations






























Interactive Weather Map
Tropical Storm Tracking
New forecast layout! Learn more

10-Day Weather Forecast

Advertisements
Track Severe Weather on mobile